Time;durP1;ratioP1;P1;durP2;ratioP2;P2;SDS_P1;SDS_P2;PMS_P1;PMS_P2;Temp;Humidity;BMP_temperature;BMP_pressure;BME280_temperature;BME280_humidity;BME280_pressure;Samples;Min_cycle;Max_cycle;Signal;HPM_P1;HPM_P2
2021/09/27 06:53:31;;;;;;;11.07;6.32;;;;;;;19.99;51.33;100452.31;4810597;28;8217071;-21
2021/09/27 06:55:59;;;;;;;12.63;6.35;;;;;;;20.27;50.02;100447.41;5090373;28;20108;-21
2021/09/27 06:58:25;;;;;;;9.65;6.05;;;;;;;20.57;50.03;100442.97;5090459;28;20028;-21
2021/09/27 07:00:51;;;;;;;10.70;6.00;;;;;;;20.70;49.93;100450.56;5089989;28;20711;-21
2021/09/27 07:03:17;;;;;;;10.10;6.28;;;;;;;20.48;49.27;100445.47;5090422;28;20081;-22
2021/09/27 07:05:42;;;;;;;16.42;6.60;;;;;;;20.85;48.93;100446.97;5090359;28;20078;-21
2021/09/27 07:08:08;;;;;;;10.35;6.32;;;;;;;21.23;48.20;100440.00;5090701;28;20112;-21
2021/09/27 07:10:33;;;;;;;12.02;6.50;;;;;;;21.12;49.32;100443.84;5090052;28;20028;-21
2021/09/27 07:12:59;;;;;;;9.55;6.40;;;;;;;21.17;48.06;100441.13;5090193;28;20055;-21
2021/09/27 07:15:24;;;;;;;9.20;5.88;;;;;;;21.62;47.06;100452.78;5089274;28;20032;-21
2021/09/27 07:17:50;;;;;;;11.73;6.55;;;;;;;21.48;47.76;100448.28;5090244;28;20035;-21
2021/09/27 07:20:20;;;;;;;11.05;6.80;;;;;;;21.51;47.49;100434.13;5088257;28;20024;-22
2021/09/27 07:22:46;;;;;;;10.55;5.82;;;;;;;21.37;48.19;100445.59;5071686;28;20067;-22
2021/09/27 07:25:13;;;;;;;9.38;5.13;;;;;;;20.71;49.04;100433.22;5089992;28;20055;-22
2021/09/27 07:27:38;;;;;;;8.85;5.00;;;;;;;21.59;47.02;100447.09;5090028;28;20066;-22
2021/09/27 07:30:05;;;;;;;9.07;4.97;;;;;;;22.09;46.57;100458.63;5089697;28;20055;-22
2021/09/27 07:32:30;;;;;;;9.38;5.80;;;;;;;22.43;45.28;100446.88;5089584;28;20479;-22
2021/09/27 07:34:56;;;;;;;11.45;6.40;;;;;;;21.53;47.23;100457.16;5089713;28;20036;-21
2021/09/27 07:37:21;;;;;;;8.70;5.28;;;;;;;21.73;46.31;100456.22;5089765;28;20039;-22
2021/09/27 07:39:47;;;;;;;8.27;4.88;;;;;;;22.14;45.57;100460.47;5089785;28;20032;-22
2021/09/27 07:42:12;;;;;;;9.55;5.13;;;;;;;22.49;43.78;100464.75;5089774;28;20035;-21
2021/09/27 07:44:38;;;;;;;8.75;5.40;;;;;;;22.45;43.11;100461.00;5089488;28;20429;-21
2021/09/27 07:47:04;;;;;;;10.43;5.72;;;;;;;22.64;44.01;100469.22;5089734;28;20040;-22
2021/09/27 07:49:30;;;;;;;66.38;44.28;;;;;;;22.70;43.90;100451.75;5089462;28;20828;-22
2021/09/27 07:51:57;;;;;;;23.15;13.05;;;;;;;22.66;44.47;100465.13;5089252;28;20036;-22
2021/09/27 07:54:25;;;;;;;12.32;6.88;;;;;;;23.04;42.39;100464.41;5089145;28;20052;-22
2021/09/27 07:56:51;;;;;;;9.82;6.13;;;;;;;23.52;42.74;100447.94;5089037;28;20032;-22
2021/09/27 07:59:16;;;;;;;14.35;7.20;;;;;;;23.19;42.08;100438.88;5089242;28;20097;-22
2021/09/27 08:01:42;;;;;;;10.10;5.97;;;;;;;23.29;41.79;100441.44;5071171;28;20104;-22
2021/09/27 08:04:09;;;;;;;10.93;5.80;;;;;;;23.00;43.09;100419.81;5089701;28;20038;-22
2021/09/27 08:06:35;;;;;;;8.23;4.97;;;;;;;22.97;42.57;100426.66;5089075;28;20051;-22
2021/09/27 08:09:01;;;;;;;8.50;5.47;;;;;;;22.55;42.58;100420.09;5089290;28;20024;-22
2021/09/27 08:11:27;;;;;;;9.10;4.90;;;;;;;22.82;42.30;100446.72;5088954;28;20074;-22
2021/09/27 08:13:52;;;;;;;7.90;4.72;;;;;;;23.38;41.79;100436.19;5089018;28;20487;-23
2021/09/27 08:16:18;;;;;;;10.88;5.25;;;;;;;23.52;41.59;100437.03;5070995;28;20403;-23
2021/09/27 08:18:43;;;;;;;9.52;5.40;;;;;;;23.84;39.36;100443.63;5088895;28;20028;-23
2021/09/27 08:21:12;;;;;;;28.92;19.05;;;;;;;24.12;40.15;100432.78;5089025;28;20020;-23
2021/09/27 08:23:37;;;;;;;9.23;5.35;;;;;;;24.39;40.84;100440.97;5089075;28;20020;-23
2021/09/27 08:26:03;;;;;;;8.57;5.18;;;;;;;24.23;39.00;100437.75;5088873;28;20032;-23
2021/09/27 08:28:36;;;;;;;12.00;6.53;;;;;;;24.16;39.04;100428.34;5088806;28;20103;-22
2021/09/27 08:31:04;;;;;;;11.00;5.32;;;;;;;24.42;39.07;100436.84;5070915;28;20036;-22
2021/09/27 08:33:30;;;;;;;9.20;5.32;;;;;;;24.53;38.13;100437.47;5089121;28;20036;-22
2021/09/27 08:35:57;;;;;;;9.30;5.10;;;;;;;24.41;38.85;100437.94;5088830;28;20028;-22
2021/09/27 08:38:23;;;;;;;8.03;4.27;;;;;;;23.99;39.35;100418.84;5088905;28;20035;-22
2021/09/27 08:40:48;;;;;;;8.63;4.75;;;;;;;24.34;38.99;100430.19;5088703;28;20020;-22
2021/09/27 08:43:38;;;;;;;8.77;5.10;;;;;;;24.69;39.12;100408.00;5088754;28;20028;-21
2021/09/27 08:46:13;;;;;;;9.15;5.15;;;;;;;24.43;38.85;100417.44;5056793;28;20032;-22
2021/09/27 08:48:41;;;;;;;8.10;4.90;;;;;;;24.28;38.94;100393.25;5088603;28;20461;-22
2021/09/27 08:51:06;;;;;;;;;;;;;;;24.61;37.57;100412.22;5054826;28;20028;-21
2021/09/27 08:53:35;;;;;;;9.30;5.10;;;;;;;24.71;37.44;100392.13;5088721;28;19920;-21
2021/09/27 08:56:22;;;;;;;9.57;5.00;;;;;;;25.22;36.67;100400.00;5088678;28;20039;-22
2021/09/27 08:58:57;;;;;;;8.23;5.03;;;;;;;25.16;37.16;100400.41;5087725;28;20059;-21
2021/09/27 09:01:28;;;;;;;8.30;4.97;;;;;;;25.32;37.24;100403.59;5088368;28;20051;-21
2021/09/27 09:04:01;;;;;;;7.68;4.97;;;;;;;24.84;37.78;100411.16;5054221;28;20028;-22
2021/09/27 09:06:34;;;;;;;10.63;4.97;;;;;;;24.88;36.59;100400.47;5088765;28;20065;-21
2021/09/27 09:09:15;;;;;;;7.63;4.60;;;;;;;25.67;36.16;100394.53;5054501;28;20034;-21
2021/09/27 09:12:30;;;;;;;17.17;7.78;;;;;;;25.64;35.22;100395.16;5088660;28;20142;-21
2021/09/27 09:15:01;;;;;;;9.40;5.15;;;;;;;25.00;36.40;100399.94;4994895;28;20034;-21
2021/09/27 09:17:33;;;;;;;12.32;5.65;;;;;;;25.71;35.26;100389.25;5076639;28;20419;-22
2021/09/27 09:20:00;;;;;;;8.82;5.13;;;;;;;25.47;35.91;100392.31;5088488;28;20024;-22
2021/09/27 09:22:27;;;;;;;17.33;10.40;;;;;;;25.38;35.55;100397.72;5070774;28;20028;-21
2021/09/27 09:24:52;;;;;;;23.25;12.60;;;;;;;24.94;36.46;100391.06;5070042;28;20093;-22
2021/09/27 09:27:18;;;;;;;32.65;19.63;;;;;;;25.35;36.76;100397.50;5070440;28;20445;-21
2021/09/27 09:29:44;;;;;;;9.93;4.97;;;;;;;25.51;36.29;100370.66;5088444;28;20047;-21
2021/09/27 09:32:28;;;;;;;11.25;4.88;;;;;;;25.89;36.29;100381.94;5088159;28;20078;-21
2021/09/27 09:35:13;;;;;;;9.55;4.78;;;;;;;26.28;34.63;100385.84;5088229;28;20517;-21
2021/09/27 09:37:41;;;;;;;8.48;4.57;;;;;;;26.09;35.39;100372.41;5088573;28;20032;-21
2021/09/27 09:40:26;;;;;;;14.95;6.70;;;;;;;26.55;33.75;100381.25;5073094;28;20032;-21
2021/09/27 09:43:05;;;;;;;8.45;4.60;;;;;;;26.50;34.50;100370.44;5091862;28;20467;-21
2021/09/27 09:45:35;;;;;;;9.00;4.43;;;;;;;26.15;34.57;100365.66;5091850;28;20055;-22
2021/09/27 09:48:25;;;;;;;8.15;4.53;;;;;;;26.58;33.57;100377.88;5091901;28;20388;-21
2021/09/27 09:50:54;;;;;;;7.20;4.18;;;;;;;26.30;33.57;100353.53;5091984;28;20031;-21
2021/09/27 09:53:23;;;;;;;12.35;4.85;;;;;;;26.81;33.61;100360.22;5091836;28;20044;-22
2021/09/27 09:55:55;;;;;;;8.85;4.40;;;;;;;27.02;32.49;100351.38;5091756;28;20116;-21
2021/09/27 09:58:43;;;;;;;7.88;4.50;;;;;;;27.04;33.10;100335.44;5091779;28;20403;-21
2021/09/27 10:01:20;;;;;;;8.60;4.50;;;;;;;27.38;32.92;100355.69;5091582;28;20051;-21
2021/09/27 10:04:01;;;;;;;8.23;4.07;;;;;;;27.20;33.45;100349.44;5091650;28;20560;-22
2021/09/27 10:06:32;;;;;;;9.23;4.30;;;;;;;27.38;33.14;100333.78;5091652;28;20139;-21
2021/09/27 10:08:59;;;;;;;13.35;4.65;;;;;;;27.19;32.38;100321.22;5091484;28;20039;-21
2021/09/27 10:11:31;;;;;;;10.00;4.47;;;;;;;27.50;31.99;100336.66;5056681;28;20028;-21
2021/09/27 10:13:56;;;;;;;9.15;4.55;;;;;;;27.40;32.18;100326.06;5073163;28;20085;-21
2021/09/27 10:16:28;;;;;;;9.90;4.60;;;;;;;27.45;32.22;100328.63;5091263;28;20449;-21
2021/09/27 10:18:53;;;;;;;15.13;4.53;;;;;;;27.24;33.34;100306.63;5091208;28;20407;-21
2021/09/27 10:21:19;;;;;;;8.90;4.53;;;;;;;27.38;33.09;100325.56;5057028;28;20028;-21
2021/09/27 10:23:49;;;;;;;7.30;4.50;;;;;;;27.04;32.24;100327.22;5091215;28;20031;-21
2021/09/27 10:26:26;;;;;;;7.45;4.60;;;;;;;27.62;31.77;100325.84;5091196;28;20103;-21
2021/09/27 10:28:52;;;;;;;10.90;4.78;;;;;;;27.64;31.77;100309.91;5090994;28;20097;-21
2021/09/27 10:31:18;;;;;;;8.68;4.43;;;;;;;27.38;31.94;100300.94;5090452;28;20032;-22
2021/09/27 10:33:51;;;;;;;8.10;4.28;;;;;;;26.73;32.56;100303.56;5073159;28;20448;-21
2021/09/27 10:36:18;;;;;;;9.65;4.78;;;;;;;26.86;32.37;100305.31;5073052;28;20028;-21
2021/09/27 10:38:53;;;;;;;6.13;4.22;;;;;;;27.02;32.45;100293.91;5056354;28;20031;-21
2021/09/27 10:41:25;;;;;;;10.35;5.10;;;;;;;27.28;32.30;100291.16;5090950;28;20063;-21
2021/09/27 10:43:54;;;;;;;10.73;4.75;;;;;;;27.61;30.47;100294.09;5056141;28;20032;-21
2021/09/27 10:46:20;;;;;;;11.23;7.75;;;;;;;27.88;30.65;100288.53;5090738;28;20028;-21
2021/09/27 10:48:49;;;;;;;6.75;4.50;;;;;;;28.66;30.57;100282.56;5072366;28;20036;-21
2021/09/27 10:51:15;;;;;;;9.10;4.38;;;;;;;28.47;30.33;100280.28;5071851;28;20043;-21
2021/09/27 10:54:22;;;;;;;7.85;4.53;;;;;;;29.52;29.24;100277.34;5055773;28;20049;-21
2021/09/27 10:56:50;;;;;;;10.23;5.10;;;;;;;28.72;30.26;100274.94;5062757;28;20043;-21
2021/09/27 10:59:47;;;;;;;8.82;4.75;;;;;;;28.74;29.69;100267.97;5090475;28;20027;-21
2021/09/27 11:02:33;;;;;;;6.85;4.25;;;;;;;28.79;30.70;100267.78;5089856;28;20112;-21
2021/09/27 11:05:29;;;;;;;10.93;4.85;;;;;;;28.33;31.03;100264.06;5090347;28;20056;-21
2021/09/27 11:07:55;;;;;;;7.50;4.40;;;;;;;27.70;31.14;100255.69;5074907;28;20032;-21
2021/09/27 11:10:21;;;;;;;12.43;4.43;;;;;;;27.63;31.03;100253.47;5055686;28;20024;-21
2021/09/27 11:12:48;;;;;;;10.27;4.60;;;;;;;27.90;30.59;100248.69;5090235;28;20024;-21
2021/09/27 11:15:20;;;;;;;10.20;4.88;;;;;;;28.16;30.46;100253.25;5055586;28;20847;-21
2021/09/27 11:17:59;;;;;;;10.05;4.45;;;;;;;28.56;30.32;100230.84;5089926;28;20082;-21
2021/09/27 11:20:30;;;;;;;6.93;4.55;;;;;;;29.26;28.98;100244.72;5089702;28;20036;-21
2021/09/27 11:22:55;;;;;;;7.47;4.45;;;;;;;29.59;28.85;100241.88;5090152;28;20032;-21
2021/09/27 11:25:21;;;;;;;8.20;4.78;;;;;;;29.05;28.62;100245.56;5089715;28;20081;-21
2021/09/27 11:28:12;;;;;;;6.35;3.97;;;;;;;29.37;28.37;100234.09;5090209;28;20028;-21
2021/09/27 11:31:05;;;;;;;7.30;3.92;;;;;;;29.16;28.12;100234.97;5042302;28;20036;-21
2021/09/27 11:33:30;;;;;;;9.15;5.22;;;;;;;29.21;28.44;100223.75;5089829;28;20034;-21
2021/09/27 11:36:06;;;;;;;9.15;4.25;;;;;;;28.92;28.59;100199.19;5089741;28;20032;-21
2021/09/27 11:38:31;;;;;;;11.00;4.43;;;;;;;29.14;28.62;100226.25;5089750;28;20039;-21
2021/09/27 11:41:10;;;;;;;8.68;4.20;;;;;;;28.78;29.21;100221.44;5089582;28;20020;-21
2021/09/27 11:43:46;;;;;;;7.55;4.10;;;;;;;28.93;30.10;100212.59;5089829;28;20020;-21
2021/09/27 11:46:32;;;;;;;9.10;4.82;;;;;;;28.61;29.70;100216.94;5089640;28;20028;-21
2021/09/27 11:49:38;;;;;;;6.53;3.88;;;;;;;28.59;29.07;100210.97;5089469;28;20031;-21
2021/09/27 11:52:20;;;;;;;7.88;4.30;;;;;;;29.17;28.60;100206.34;5089466;28;20036;-21
2021/09/27 11:55:08;;;;;;;9.88;3.88;;;;;;;29.65;28.58;100207.53;5071164;28;20044;-21
2021/09/27 11:57:44;;;;;;;5.70;4.05;;;;;;;29.65;28.50;100198.50;5071551;28;20471;-21
2021/09/27 12:00:24;;;;;;;7.07;4.15;;;;;;;29.22;28.04;100178.69;5071715;28;20027;-21
2021/09/27 12:03:03;;;;;;;8.05;3.90;;;;;;;29.48;28.47;100195.97;5070820;28;20028;-21
2021/09/27 12:05:45;;;;;;;8.02;4.10;;;;;;;29.42;28.43;100192.63;5071284;28;20028;-21
2021/09/27 12:08:17;;;;;;;8.20;3.97;;;;;;;29.32;27.90;100193.09;5071073;28;20028;-21
2021/09/27 12:10:59;;;;;;;7.18;4.03;;;;;;;29.70;27.45;100181.75;5070870;28;20024;-21
2021/09/27 12:13:26;;;;;;;5.57;4.07;;;;;;;30.44;26.36;100171.44;5088821;28;20487;-21
2021/09/27 12:15:57;;;;;;;14.27;8.00;;;;;;;30.65;26.16;100181.44;5089206;28;20106;-21
2021/09/27 12:18:59;;;;;;;9.02;5.55;;;;;;;31.36;25.49;100182.47;5071309;28;20035;-21
2021/09/27 12:21:39;;;;;;;6.28;4.35;;;;;;;30.87;25.89;100166.25;5036293;28;20032;-21
2021/09/27 12:24:04;;;;;;;6.88;4.50;;;;;;;30.18;26.73;100179.25;5071010;28;20067;-21
2021/09/27 12:26:31;;;;;;;6.97;4.07;;;;;;;30.36;27.06;100161.38;5089047;28;20063;-21
2021/09/27 12:29:21;;;;;;;9.10;4.80;;;;;;;30.77;26.65;100166.78;5088867;28;20047;-21
2021/09/27 12:31:57;;;;;;;5.45;4.25;;;;;;;30.69;27.21;100148.47;5076106;28;20359;-21
2021/09/27 12:34:44;;;;;;;8.60;4.30;;;;;;;30.22;26.49;100152.69;5088905;28;20054;-21
2021/09/27 12:37:11;;;;;;;5.88;4.10;;;;;;;30.66;26.26;100160.19;5088871;28;20071;-21
2021/09/27 12:39:37;;;;;;;6.82;4.43;;;;;;;30.47;25.93;100152.63;5088945;28;20028;-21
2021/09/27 12:42:04;;;;;;;6.57;4.35;;;;;;;31.00;26.67;100142.25;5089197;28;20430;-21
2021/09/27 12:44:35;;;;;;;5.75;4.10;;;;;;;31.33;25.37;100141.84;5088787;28;20035;-21
2021/09/27 12:47:04;;;;;;;6.65;4.47;;;;;;;30.99;25.77;100124.09;5071622;28;20048;-21
2021/09/27 12:49:33;;;;;;;9.38;4.40;;;;;;;31.41;25.78;100148.34;5088681;28;20585;-21
2021/09/27 12:51:59;;;;;;;10.05;4.53;;;;;;;31.47;25.26;100151.63;5070602;28;20032;-21
2021/09/27 12:54:29;;;;;;;7.15;4.28;;;;;;;31.81;25.53;100144.53;5070636;28;20056;-21
2021/09/27 12:56:58;;;;;;;7.70;4.75;;;;;;;31.08;25.80;100135.75;5070406;28;20028;-21
2021/09/27 12:59:28;;;;;;;5.85;4.10;;;;;;;31.03;25.77;100141.50;5070757;28;20050;-21
2021/09/27 13:01:58;;;;;;;7.50;4.65;;;;;;;31.42;25.45;100144.41;5055309;28;20016;-21
2021/09/27 13:04:31;;;;;;;7.90;4.75;;;;;;;31.58;25.60;100144.41;5088660;28;20092;-21
2021/09/27 13:07:12;;;;;;;7.57;4.20;;;;;;;31.66;24.80;100137.13;5088473;28;20031;-21
2021/09/27 13:09:54;;;;;;;7.50;4.13;;;;;;;31.50;25.55;100129.66;5088593;28;20106;-21
2021/09/27 13:12:34;;;;;;;6.72;4.18;;;;;;;31.49;25.52;100135.53;5088699;28;20024;-21
2021/09/27 13:15:13;;;;;;;7.25;4.30;;;;;;;31.90;24.90;100130.56;5091310;28;20483;-21
2021/09/27 13:17:59;;;;;;;9.77;4.90;;;;;;;32.21;24.71;100110.31;5092541;28;20516;-21
2021/09/27 13:20:50;;;;;;;7.63;4.18;;;;;;;32.10;24.73;100125.84;5075250;28;20565;-21
2021/09/27 13:23:24;;;;;;;6.80;4.25;;;;;;;32.13;24.62;100131.44;5092255;28;20059;-21
2021/09/27 13:25:55;;;;;;;6.85;4.38;;;;;;;32.53;24.33;100126.66;5092379;28;20056;-21
2021/09/27 13:28:28;;;;;;;7.55;4.30;;;;;;;32.02;23.92;100122.16;5092142;28;20525;-21
2021/09/27 13:31:00;;;;;;;7.32;4.28;;;;;;;31.41;25.37;100129.84;5074670;28;20498;-21
2021/09/27 13:33:34;;;;;;;7.03;4.50;;;;;;;31.57;24.72;100120.78;5092222;28;20020;-21
2021/09/27 13:36:02;;;;;;;9.02;4.57;;;;;;;31.28;25.92;100111.00;5092246;28;20085;-21
2021/09/27 13:38:34;;;;;;;8.70;4.40;;;;;;;31.84;25.42;100128.06;5092141;28;20025;-21
2021/09/27 13:41:21;;;;;;;6.75;4.50;;;;;;;32.57;24.20;100124.78;5091928;28;20376;-21
2021/09/27 13:43:54;;;;;;;7.72;4.60;;;;;;;32.53;24.28;100099.06;5092111;28;20407;-21
2021/09/27 13:46:22;;;;;;;9.27;4.15;;;;;;;32.76;24.15;100118.44;5092056;28;20032;-21
2021/09/27 13:48:48;;;;;;;7.88;4.40;;;;;;;33.10;22.89;100088.22;5091812;28;20552;-21
2021/09/27 13:51:14;;;;;;;6.18;4.40;;;;;;;33.32;22.93;100105.94;5091562;28;20028;-21
2021/09/27 13:53:57;;;;;;;5.50;4.57;;;;;;;32.43;23.41;100104.03;5091469;28;20060;-22
2021/09/27 13:56:31;;;;;;;14.63;5.32;;;;;;;31.57;24.66;100107.00;5074025;28;20407;-21
2021/09/27 13:58:56;;;;;;;8.35;4.53;;;;;;;32.20;23.89;100092.16;5091523;28;20043;-21
2021/09/27 14:01:22;;;;;;;6.55;4.28;;;;;;;33.22;22.82;100093.53;5091779;28;20237;-22
2021/09/27 14:03:48;;;;;;;7.68;4.50;;;;;;;33.10;22.81;100105.63;5091563;28;20032;-21
2021/09/27 14:06:15;;;;;;;7.95;4.40;;;;;;;33.11;22.83;100095.38;5091616;28;20042;-22
2021/09/27 14:08:41;;;;;;;9.23;4.60;;;;;;;34.13;21.78;100096.34;5091474;28;20032;-21
2021/09/27 14:11:06;;;;;;;6.10;4.72;;;;;;;34.05;21.84;100097.44;5091734;28;20036;-21
2021/09/27 14:13:32;;;;;;;9.48;5.53;;;;;;;33.74;22.42;100099.44;5091412;28;20039;-22
2021/09/27 14:15:59;;;;;;;8.30;4.78;;;;;;;33.11;22.77;100100.91;5091299;28;20020;-21
2021/09/27 14:18:25;;;;;;;8.00;4.75;;;;;;;32.54;23.09;100084.94;5091187;28;20059;-21
2021/09/27 14:20:50;;;;;;;9.60;4.57;;;;;;;32.73;22.90;100092.34;5091227;28;20376;-21
2021/09/27 14:23:16;;;;;;;6.10;4.35;;;;;;;32.16;23.89;100085.75;5091268;28;20032;-21
2021/09/27 14:25:42;;;;;;;8.60;4.20;;;;;;;33.92;21.75;100100.47;5090847;28;20035;-22
2021/09/27 14:28:07;;;;;;;8.10;5.15;;;;;;;35.05;21.51;100095.69;5091016;28;20139;-21
2021/09/27 14:30:33;;;;;;;8.00;4.20;;;;;;;33.48;22.58;100098.28;5091198;28;20088;-22
2021/09/27 14:32:58;;;;;;;8.90;4.90;;;;;;;32.26;23.99;100090.69;5091143;28;20032;-21
2021/09/27 14:35:24;;;;;;;12.48;4.93;;;;;;;31.16;24.87;100078.84;5091187;28;20032;-21
2021/09/27 14:37:49;;;;;;;6.95;5.10;;;;;;;30.26;26.06;100082.06;5091039;28;20495;-21
2021/09/27 14:40:18;;;;;;;7.22;4.50;;;;;;;29.86;27.18;100076.63;5090877;28;20028;-21
2021/09/27 14:42:43;;;;;;;6.30;4.82;;;;;;;30.07;26.50;100059.94;5090491;28;20063;-21
2021/09/27 14:45:09;;;;;;;17.65;5.68;;;;;;;31.14;25.18;100070.97;5090463;28;20060;-21
2021/09/27 14:47:36;;;;;;;6.75;4.50;;;;;;;30.54;25.90;100079.28;5090625;28;20020;-21
2021/09/27 14:50:01;;;;;;;8.32;5.13;;;;;;;30.14;26.58;100060.09;5091081;28;20032;-21
2021/09/27 14:52:27;;;;;;;11.48;5.78;;;;;;;29.83;27.23;100065.19;5090566;28;20035;-21
2021/09/27 14:54:53;;;;;;;10.70;4.97;;;;;;;30.46;26.17;100069.25;5090190;28;20079;-21
2021/09/27 14:57:19;;;;;;;10.77;5.18;;;;;;;30.72;26.41;100068.75;5090771;28;20101;-22
2021/09/27 14:59:44;;;;;;;10.20;4.97;;;;;;;31.27;25.58;100068.91;5090531;28;20055;-21
2021/09/27 15:02:10;;;;;;;10.52;5.00;;;;;;;31.58;24.71;100075.50;5090442;28;20035;-21
2021/09/27 15:04:35;;;;;;;7.20;4.80;;;;;;;31.32;25.61;100076.06;5090468;28;20032;-21
2021/09/27 15:07:01;;;;;;;7.97;5.47;;;;;;;31.30;25.70;100067.38;5090503;28;20498;-22
2021/09/27 15:09:26;;;;;;;10.38;5.00;;;;;;;31.16;25.60;100068.66;5090043;28;20093;-22
2021/09/27 15:11:52;;;;;;;8.90;4.85;;;;;;;31.38;25.19;100041.56;5090329;28;20025;-22
2021/09/27 15:14:18;;;;;;;8.88;5.57;;;;;;;30.87;26.05;100069.09;5090729;28;20690;-22
2021/09/27 15:16:43;;;;;;;7.03;5.10;;;;;;;30.07;27.58;100057.19;5090155;28;20036;-22
2021/09/27 15:19:09;;;;;;;8.02;4.93;;;;;;;29.75;28.48;100068.06;5090299;28;20060;-22
2021/09/27 15:21:35;;;;;;;7.68;6.07;;;;;;;29.42;28.37;100047.88;5090134;28;20475;-21
2021/09/27 15:24:00;;;;;;;11.35;9.73;;;;;;;29.14;29.17;100055.22;5090049;28;20114;-21
2021/09/27 15:26:31;;;;;;;12.15;10.52;;;;;;;29.10;29.55;100059.78;5090185;28;20534;-22
2021/09/27 15:28:59;;;;;;;11.85;7.20;;;;;;;29.00;29.64;100061.03;5089671;28;20032;-21
2021/09/27 15:31:25;;;;;;;9.48;5.97;;;;;;;29.13;29.49;100062.63;5090016;28;20028;-22
2021/09/27 15:33:50;;;;;;;10.35;5.45;;;;;;;29.24;28.89;100072.03;5089608;28;20197;-22
2021/09/27 15:36:16;;;;;;;7.70;4.63;;;;;;;28.66;29.66;100065.78;5089039;28;20113;-22
2021/09/27 15:38:42;;;;;;;9.27;5.20;;;;;;;28.58;30.20;100063.94;5071275;28;20035;-22
2021/09/27 15:41:09;;;;;;;10.57;4.88;;;;;;;28.36;30.50;100065.13;5089836;28;20028;-21
2021/09/27 15:43:34;;;;;;;13.73;6.18;;;;;;;28.61;30.20;100060.53;5089781;28;20036;-22
2021/09/27 15:46:00;;;;;;;12.38;5.90;;;;;;;28.70;30.35;100074.94;5089474;28;20116;-22
2021/09/27 15:48:25;;;;;;;11.20;5.90;;;;;;;28.80;30.17;100074.50;5089688;28;20720;-21
2021/09/27 15:50:51;;;;;;;10.85;5.43;;;;;;;28.75;30.34;100069.25;5089180;28;20024;-21
2021/09/27 15:53:17;;;;;;;12.68;6.30;;;;;;;28.90;30.38;100083.44;5089240;28;20048;-21
2021/09/27 15:55:43;;;;;;;16.20;5.65;;;;;;;28.75;30.21;100069.25;5089343;28;20035;-22
2021/09/27 15:58:10;;;;;;;15.07;6.32;;;;;;;28.71;30.92;100090.28;5089459;28;20487;-21
2021/09/27 16:00:39;;;;;;;11.27;6.07;;;;;;;28.54;31.23;100085.78;5089102;28;20043;-21
2021/09/27 16:03:08;;;;;;;13.07;5.30;;;;;;;28.61;30.75;100074.25;5089316;28;20048;-22
2021/09/27 16:05:34;;;;;;;11.35;5.13;;;;;;;28.44;30.80;100089.75;5089256;28;20111;-21
2021/09/27 16:07:59;;;;;;;11.73;6.57;;;;;;;28.13;31.55;100084.69;5089237;28;20474;-22
2021/09/27 16:10:25;;;;;;;20.55;9.82;;;;;;;27.65;32.71;100092.31;5089309;28;20445;-22
2021/09/27 16:12:50;;;;;;;16.90;7.82;;;;;;;27.69;32.79;100089.72;5089027;28;20453;-24
2021/09/27 16:15:16;;;;;;;18.05;8.32;;;;;;;27.46;32.59;100100.16;5089418;28;20032;-22
2021/09/27 16:17:41;;;;;;;17.50;9.35;;;;;;;27.27;33.83;100091.59;5089110;28;20446;-21
2021/09/27 16:20:07;;;;;;;26.35;15.90;;;;;;;27.16;32.90;100097.41;5089521;28;20035;-22
2021/09/27 16:22:33;;;;;;;16.02;8.13;;;;;;;27.16;32.70;100102.91;5089158;28;20028;-21
2021/09/27 16:24:58;;;;;;;13.48;7.20;;;;;;;27.31;32.35;100104.28;5089429;28;20032;-22
2021/09/27 16:27:24;;;;;;;12.13;8.00;;;;;;;27.00;32.47;100101.84;5089083;28;20024;-21
2021/09/27 16:29:49;;;;;;;21.48;9.15;;;;;;;27.11;32.72;100100.31;5088979;28;20032;-21
2021/09/27 16:32:15;;;;;;;18.27;12.18;;;;;;;26.79;32.80;100091.63;5088636;28;20028;-22
2021/09/27 16:34:40;;;;;;;18.27;12.20;;;;;;;26.64;33.18;100103.06;5088756;28;20504;-22
2021/09/27 16:37:06;;;;;;;17.83;8.43;;;;;;;26.33;33.39;100090.41;5089003;28;20110;-22
2021/09/27 16:39:32;;;;;;;18.75;8.10;;;;;;;26.39;33.55;100080.91;5088918;28;20040;-22
2021/09/27 16:41:58;;;;;;;12.60;6.53;;;;;;;26.28;33.63;100090.59;5088856;28;20105;-22
2021/09/27 16:44:26;;;;;;;10.32;6.43;;;;;;;26.32;33.82;100102.47;5071128;28;20465;-22
2021/09/27 16:47:01;;;;;;;;;;;;;;;26.36;33.86;100102.66;5089146;28;20077;-21
2021/09/27 16:49:27;;;;;;;16.98;7.90;;;;;;;25.82;35.48;100097.47;5092612;28;19907;-21
2021/09/27 16:51:52;;;;;;;23.13;10.80;;;;;;;26.14;34.77;100089.97;5093175;28;20035;-21
2021/09/27 16:54:18;;;;;;;33.30;13.98;;;;;;;26.27;34.43;100094.44;5092809;28;20124;-21
2021/09/27 16:56:44;;;;;;;23.95;11.77;;;;;;;26.49;33.97;100089.91;5092733;28;20046;-21
2021/09/27 16:59:10;;;;;;;26.85;11.75;;;;;;;26.40;34.16;100104.41;5093075;28;20034;-22
2021/09/27 17:01:36;;;;;;;19.15;9.13;;;;;;;26.23;34.32;100088.00;5093048;28;20402;-22
2021/09/27 17:04:02;;;;;;;14.13;6.60;;;;;;;26.21;33.75;100101.19;5092719;28;20043;-22
2021/09/27 17:06:28;;;;;;;12.43;5.78;;;;;;;25.83;34.10;100090.91;5092978;28;20028;-21
2021/09/27 17:08:53;;;;;;;11.88;6.07;;;;;;;25.56;34.93;100081.06;5092770;28;20032;-22
2021/09/27 17:11:19;;;;;;;28.80;6.40;;;;;;;25.30;34.94;100097.41;5092270;28;20032;-21
2021/09/27 17:13:47;;;;;;;10.43;4.80;;;;;;;25.16;34.85;100095.56;5092766;28;20031;-22
2021/09/27 17:18:57;;;;;;;11.82;4.97;;;;;;;24.95;36.23;100094.53;5092708;28;20506;-22
2021/09/27 17:21:23;;;;;;;12.50;5.03;;;;;;;25.21;34.44;100103.63;5092768;28;20043;-22
2021/09/27 17:23:52;;;;;;;11.55;5.05;;;;;;;24.96;34.43;100093.38;5057624;28;20031;-22
2021/09/27 17:26:20;;;;;;;8.48;4.95;;;;;;;24.75;34.85;100107.56;5092432;28;20483;-21
2021/09/27 17:28:45;;;;;;;6.88;4.53;;;;;;;24.53;35.22;100104.88;5073995;28;20053;-21
2021/09/27 17:31:12;;;;;;;7.47;4.40;;;;;;;24.46;35.18;100108.03;5073905;28;20511;-21
2021/09/27 17:33:40;;;;;;;11.30;4.95;;;;;;;24.40;35.50;100101.09;5074391;28;20507;-22
2021/09/27 17:36:06;;;;;;;8.55;4.97;;;;;;;24.92;35.11;100095.94;5057677;28;20109;-22
2021/09/27 17:38:31;;;;;;;15.32;5.88;;;;;;;25.16;34.53;100117.38;5092190;28;20449;-22
2021/09/27 17:40:57;;;;;;;16.08;5.07;;;;;;;24.63;35.54;100120.97;5091974;28;20073;-21
2021/09/27 17:43:23;;;;;;;14.77;5.25;;;;;;;24.11;36.75;100115.13;5092354;28;20514;-21
2021/09/27 17:45:48;;;;;;;26.08;11.70;;;;;;;24.10;38.81;100121.69;5092102;28;20028;-22
2021/09/27 17:48:14;;;;;;;20.88;11.55;;;;;;;24.33;36.63;100133.41;5091874;28;20032;-22
2021/09/27 17:50:40;;;;;;;17.13;9.93;;;;;;;24.43;36.09;100122.25;5091538;28;20024;-22
2021/09/27 17:53:09;;;;;;;20.35;9.93;;;;;;;24.74;35.71;100132.41;5091566;28;20059;-22
2021/09/27 17:55:36;;;;;;;18.40;9.73;;;;;;;25.02;35.63;100122.94;5091787;28;20028;-21
2021/09/27 17:58:01;;;;;;;20.77;9.35;;;;;;;24.82;36.21;100129.72;5091847;28;20085;-21
2021/09/27 18:00:27;;;;;;;16.25;9.05;;;;;;;24.65;36.53;100096.94;5090942;28;20423;-21
2021/09/27 18:02:52;;;;;;;18.58;7.47;;;;;;;24.86;35.73;100138.09;5091474;28;20035;-22
2021/09/27 18:05:18;;;;;;;17.25;6.60;;;;;;;24.86;35.45;100138.09;5091507;28;20032;-22
2021/09/27 18:07:44;;;;;;;14.23;5.97;;;;;;;24.86;35.80;100138.91;5091521;28;20035;-23
2021/09/27 18:10:10;;;;;;;17.13;6.35;;;;;;;24.70;35.73;100140.41;5091524;28;20055;-23
2021/09/27 18:12:36;;;;;;;11.50;7.22;;;;;;;23.87;36.76;100151.63;5091155;28;20043;-22
2021/09/27 18:15:06;;;;;;;11.73;5.80;;;;;;;22.99;37.00;100154.41;5091274;28;20039;-22
2021/09/27 18:17:34;;;;;;;12.88;4.55;;;;;;;22.52;37.82;100142.69;5091474;28;20032;-23
2021/09/27 18:20:00;;;;;;;7.00;4.53;;;;;;;22.62;38.04;100162.34;5091203;28;20032;-21
2021/09/27 18:22:25;;;;;;;8.05;4.90;;;;;;;22.35;38.70;100163.06;5091422;28;20034;-21
2021/09/27 18:24:51;;;;;;;8.55;4.50;;;;;;;22.19;39.03;100167.06;5091426;28;20039;-21
2021/09/27 18:27:16;;;;;;;9.77;5.00;;;;;;;22.08;39.57;100161.78;5091068;28;20464;-22
2021/09/27 18:29:42;;;;;;;12.80;4.47;;;;;;;22.11;40.10;100171.25;5091080;28;20039;-21